createdAt,value
2023-05-02T00:00:29.509Z,96131.72
2023-05-02T00:02:56.214Z,96138.81
2023-05-02T00:05:23.330Z,96133.59
2023-05-02T00:07:51.477Z,96138.22
2023-05-02T00:10:18.870Z,96128.72
2023-05-02T00:12:45.403Z,96133.09
2023-05-02T00:15:11.969Z,96129.63
2023-05-02T00:17:43.714Z,96127.25
2023-05-02T00:20:11.704Z,96127.03
2023-05-02T00:22:38.753Z,96134.69
2023-05-02T00:25:06.543Z,96120.75
2023-05-02T00:27:33.643Z,96137.34
2023-05-02T00:30:03.245Z,96129.22
2023-05-02T00:32:30.054Z,96128.41
2023-05-02T00:34:56.839Z,96118.09
2023-05-02T00:37:26.760Z,96124.66
2023-05-02T00:39:53.232Z,96121.47
2023-05-02T00:42:19.833Z,96127.00
2023-05-02T00:44:47.001Z,96118.56
2023-05-02T00:47:15.175Z,96125.72
2023-05-02T00:49:42.177Z,96118.94
2023-05-02T00:52:09.651Z,96118.69
2023-05-02T00:54:38.978Z,96119.81
2023-05-02T00:57:05.856Z,96122.00
2023-05-02T00:59:34.186Z,96131.00
2023-05-02T01:02:13.771Z,96128.22
2023-05-02T01:04:59.055Z,96133.16
2023-05-02T01:07:44.514Z,96148.88
2023-05-02T01:10:55.749Z,96150.59
2023-05-02T01:13:26.304Z,96153.25
2023-05-02T01:15:56.140Z,96156.50
2023-05-02T01:18:30.521Z,96152.16
2023-05-02T01:21:08.545Z,96159.06
2023-05-02T01:24:07.390Z,96155.59
2023-05-02T01:26:47.399Z,96163.50
2023-05-02T01:29:16.274Z,96153.09
2023-05-02T01:31:45.771Z,96161.66
2023-05-02T01:34:12.591Z,96162.25
2023-05-02T01:36:46.576Z,96165.19
2023-05-02T01:39:16.192Z,96175.22
2023-05-02T01:41:43.604Z,96171.91
2023-05-02T01:44:11.728Z,96178.94
2023-05-02T01:46:42.883Z,96182.63
2023-05-02T01:49:10.856Z,96183.97
2023-05-02T01:51:51.570Z,96180.94
2023-05-02T01:54:22.051Z,96180.63
2023-05-02T01:56:50.034Z,96186.09
2023-05-02T01:59:19.945Z,96185.50
2023-05-02T02:01:47.387Z,96182.78
2023-05-02T02:04:15.713Z,96192.91
2023-05-02T02:06:46.629Z,96200.28
2023-05-02T02:09:13.341Z,96195.63
2023-05-02T02:11:59.914Z,96198.00
2023-05-02T02:14:31.701Z,96203.47
2023-05-02T02:17:01.923Z,96203.38
2023-05-02T02:19:30.868Z,96209.06
2023-05-02T02:21:59.093Z,96210.69
2023-05-02T02:24:26.920Z,96219.41
2023-05-02T02:26:53.554Z,96215.88
2023-05-02T02:29:20.478Z,96214.47
2023-05-02T02:31:47.249Z,96224.81
2023-05-02T02:34:13.932Z,96221.47
2023-05-02T02:36:49.061Z,96220.88
2023-05-02T02:39:36.290Z,96214.31
2023-05-02T02:42:14.827Z,96224.34
2023-05-02T02:44:56.976Z,96225.97
2023-05-02T02:48:03.540Z,96231.16
2023-05-02T02:58:35.717Z,96233.25
2023-05-02T03:01:06.628Z,96241.66
2023-05-02T03:03:35.767Z,96235.91
2023-05-02T03:06:04.779Z,96234.28
2023-05-02T03:08:50.477Z,96243.59
2023-05-02T03:11:17.079Z,96237.00
2023-05-02T03:13:52.926Z,96234.56
2023-05-02T03:17:01.614Z,96237.31
2023-05-02T03:20:07.016Z,96229.31
2023-05-02T03:22:33.571Z,96230.94
2023-05-02T03:25:00.056Z,96222.44
2023-05-02T03:30:07.689Z,96209.06
2023-05-02T03:33:32.148Z,96216.16
2023-05-02T03:57:32.857Z,96212.78
2023-05-02T04:04:08.774Z,96218.53
2023-05-02T04:06:35.590Z,96210.13
2023-05-02T04:09:02.399Z,96219.94
2023-05-02T04:11:28.907Z,96228.66
2023-05-02T04:13:55.553Z,96223.50
2023-05-02T04:16:22.494Z,96221.88
2023-05-02T04:18:49.038Z,96221.31
2023-05-02T04:21:15.951Z,96226.78
2023-05-02T04:23:42.595Z,96225.69
2023-05-02T04:26:09.266Z,96235.53
2023-05-02T04:28:38.544Z,96223.50
2023-05-02T04:31:05.298Z,96230.28
2023-05-02T04:33:32.874Z,96232.22
2023-05-02T04:35:59.418Z,96234.94
2023-05-02T04:38:26.002Z,96237.16
2023-05-02T04:40:52.675Z,96248.03
2023-05-02T04:43:19.269Z,96250.75
2023-05-02T04:45:47.362Z,96250.75
2023-05-02T04:48:14.053Z,96252.16
2023-05-02T04:50:40.523Z,96251.56
2023-05-02T04:53:09.265Z,96264.13
2023-05-02T04:55:35.875Z,96260.59
2023-05-02T04:58:02.362Z,96270.47
2023-05-02T05:00:29.310Z,96271.28
2023-05-02T05:02:55.861Z,96271.81
2023-05-02T05:05:22.967Z,96280.31
2023-05-02T05:07:49.559Z,96285.78
2023-05-02T05:10:16.243Z,96293.47
2023-05-02T05:12:43.066Z,96285.56
2023-05-02T05:15:10.166Z,96293.75
2023-05-02T05:17:36.739Z,96292.63
2023-05-02T05:20:03.850Z,96306.59
2023-05-02T05:22:38.717Z,96308.78
2023-05-02T05:25:05.872Z,96314.81
2023-05-02T05:27:34.613Z,96310.38
2023-05-02T05:30:01.779Z,96315.53
2023-05-02T05:32:29.481Z,96321.81
2023-05-02T05:34:57.342Z,96320.94
2023-05-02T05:37:23.886Z,96314.00
2023-05-02T05:39:50.668Z,96315.03
2023-05-02T05:42:17.075Z,96319.91
2023-05-02T05:44:43.677Z,96318.81
2023-05-02T05:47:10.248Z,96323.31
2023-05-02T05:49:38.959Z,96337.22
2023-05-02T05:52:05.794Z,96340.47
2023-05-02T05:54:32.274Z,96337.88
2023-05-02T05:57:01.502Z,96332.84
2023-05-02T05:59:28.069Z,96337.34
2023-05-02T06:01:57.468Z,96336.97
2023-05-02T06:04:24.015Z,96332.66
2023-05-02T06:06:51.657Z,96335.63
2023-05-02T06:09:18.121Z,96351.22
2023-05-02T06:11:44.728Z,96338.75
2023-05-02T06:14:11.430Z,96342.50
2023-05-02T06:16:38.174Z,96337.03
2023-05-02T06:19:04.802Z,96349.44
2023-05-02T06:21:31.458Z,96344.31
2023-05-02T06:23:58.254Z,96347.22
2023-05-02T06:26:24.816Z,96350.75
2023-05-02T06:28:51.494Z,96349.34
2023-05-02T06:31:18.320Z,96354.66
2023-05-02T06:33:44.851Z,96360.66
2023-05-02T06:36:12.692Z,96350.72
2023-05-02T06:38:39.193Z,96361.78
2023-05-02T06:41:05.767Z,96368.06
2023-05-02T06:43:32.901Z,96367.06
2023-05-02T06:46:01.284Z,96365.91
2023-05-02T06:48:28.080Z,96367.84
2023-05-02T06:50:54.674Z,96368.25
2023-05-02T06:53:24.112Z,96373.47
2023-05-02T06:55:50.848Z,96378.75
2023-05-02T06:58:21.122Z,96378.47
2023-05-02T07:00:50.897Z,96392.81
2023-05-02T07:03:17.658Z,96389.97
2023-05-02T07:05:44.404Z,96386.78
2023-05-02T07:08:11.518Z,96396.44
2023-05-02T07:10:40.850Z,96387.81
2023-05-02T07:13:08.782Z,96386.78
2023-05-02T07:15:35.210Z,96392.78
2023-05-02T07:18:04.985Z,96400.28
2023-05-02T07:20:31.611Z,96390.44
2023-05-02T07:23:04.629Z,96396.94
2023-05-02T07:25:31.234Z,96403.03
2023-05-02T07:27:57.946Z,96400.00
2023-05-02T07:30:24.436Z,96407.59
2023-05-02T07:32:51.236Z,96402.00
2023-05-02T07:35:18.254Z,96395.28
2023-05-02T07:37:44.787Z,96401.81
2023-05-02T07:40:11.518Z,96401.91
2023-05-02T07:42:38.129Z,96393.91
2023-05-02T07:45:05.183Z,96392.13
2023-05-02T07:47:35.017Z,96400.25
2023-05-02T07:50:03.081Z,96400.94
2023-05-02T07:52:33.187Z,96391.19
2023-05-02T07:54:59.758Z,96405.00
2023-05-02T07:58:01.243Z,96407.81
2023-05-02T08:00:30.891Z,96402.22
2023-05-02T08:02:59.684Z,96403.94
2023-05-02T08:05:27.687Z,96400.53
2023-05-02T08:07:56.449Z,96407.44
2023-05-02T08:10:24.367Z,96408.69
2023-05-02T08:12:51.113Z,96409.00
2023-05-02T08:15:17.580Z,96410.50
2023-05-02T08:17:44.134Z,96407.00
2023-05-02T08:20:11.107Z,96409.38
2023-05-02T08:22:37.893Z,96404.50
2023-05-02T08:25:07.865Z,96413.81
2023-05-02T08:27:35.522Z,96419.59
2023-05-02T08:30:05.031Z,96424.72
2023-05-02T08:32:32.937Z,96427.72
2023-05-02T08:35:01.022Z,96429.34
2023-05-02T08:37:27.529Z,96427.97
2023-05-02T08:39:54.336Z,96432.53
2023-05-02T08:42:25.010Z,96434.41
2023-05-02T08:44:54.453Z,96439.94
2023-05-02T08:47:23.008Z,96443.44
2023-05-02T08:49:50.507Z,96433.28
2023-05-02T08:52:23.399Z,96440.81
2023-05-02T08:54:57.054Z,96451.59
2023-05-02T08:57:23.542Z,96443.13
2023-05-02T08:59:55.249Z,96452.59
2023-05-02T09:02:52.508Z,96469.72
2023-05-02T09:05:23.962Z,96466.56
2023-05-02T09:07:51.962Z,96459.81
2023-05-02T09:10:18.677Z,96460.63
2023-05-02T09:12:45.388Z,96473.63
2023-05-02T09:15:21.523Z,96467.88
2023-05-02T09:17:50.188Z,96471.31
2023-05-02T09:20:17.421Z,96468.50
2023-05-02T09:22:52.471Z,96470.22
2023-05-02T09:25:22.520Z,96469.91
2023-05-02T09:27:56.796Z,96479.75
2023-05-02T09:30:25.395Z,96484.31
2023-05-02T09:32:55.899Z,96492.31
2023-05-02T09:35:30.682Z,96493.31
2023-05-02T09:37:59.457Z,96480.69
2023-05-02T09:40:27.839Z,96485.53
2023-05-02T09:42:55.884Z,96488.59
2023-05-02T09:45:24.781Z,96489.00
2023-05-02T09:47:59.327Z,96495.88
2023-05-02T09:50:37.670Z,96487.09
2023-05-02T09:53:13.441Z,96487.47
2023-05-02T09:55:43.098Z,96488.41
2023-05-02T09:58:24.084Z,96495.09
2023-05-02T10:00:54.801Z,96493.88
2023-05-02T10:03:26.667Z,96494.59
2023-05-02T10:05:56.574Z,96499.97
2023-05-02T10:08:28.296Z,96491.25
2023-05-02T10:10:57.540Z,96496.75
2023-05-02T10:13:27.308Z,96487.41
2023-05-02T10:16:02.794Z,96493.50
2023-05-02T10:18:40.914Z,96493.22
2023-05-02T10:21:27.921Z,96489.88
2023-05-02T10:23:54.937Z,96492.78
2023-05-02T10:26:26.362Z,96488.13
2023-05-02T10:28:56.371Z,96485.69
2023-05-02T10:31:23.150Z,96492.22
2023-05-02T10:33:52.342Z,96477.19
2023-05-02T10:36:23.610Z,96469.28
2023-05-02T10:38:51.170Z,96458.22
2023-05-02T10:41:26.964Z,96476.56
2023-05-02T10:43:54.043Z,96476.06
2023-05-02T10:46:37.410Z,96476.44
2023-05-02T10:49:11.526Z,96484.00
2023-05-02T10:51:43.549Z,96486.53
2023-05-02T10:54:20.755Z,96491.84
2023-05-02T10:57:05.946Z,96485.94
2023-05-02T10:59:37.301Z,96480.94
2023-05-02T11:02:07.142Z,96471.38
2023-05-02T11:05:07.219Z,96468.47
2023-05-02T11:07:36.207Z,96465.22
2023-05-02T11:10:18.198Z,96469.25
2023-05-02T11:12:49.152Z,96459.31
2023-05-02T11:15:38.510Z,96462.88
2023-05-02T11:18:12.564Z,96465.47
2023-05-02T11:21:38.937Z,96465.13
2023-05-02T11:24:38.844Z,96473.00
2023-05-02T11:27:30.526Z,96475.06
2023-05-02T11:29:58.915Z,96474.31
2023-05-02T11:32:46.621Z,96466.22
2023-05-02T11:35:18.913Z,96470.03
2023-05-02T11:37:59.320Z,96474.47
2023-05-02T11:40:27.609Z,96482.88
2023-05-02T11:42:54.746Z,96483.72
2023-05-02T11:45:21.584Z,96488.59
2023-05-02T11:47:49.776Z,96480.63
2023-05-02T11:50:16.934Z,96472.34
2023-05-02T11:52:45.384Z,96481.44
2023-05-02T11:55:14.347Z,96469.88
2023-05-02T11:57:41.246Z,96472.97
2023-05-02T12:00:08.462Z,96470.41
2023-05-02T12:02:45.715Z,96464.88
2023-05-02T12:05:14.169Z,96473.16
2023-05-02T12:07:45.939Z,96471.81
2023-05-02T12:10:13.782Z,96479.16
2023-05-02T12:12:44.848Z,96481.44
2023-05-02T12:15:12.704Z,96487.09
2023-05-02T12:17:42.191Z,96485.63
2023-05-02T12:20:11.078Z,96488.06
2023-05-02T12:22:38.033Z,96487.31
2023-05-02T12:25:05.742Z,96483.63
2023-05-02T12:27:33.428Z,96473.09
2023-05-02T12:30:00.815Z,96479.91
2023-05-02T12:32:32.356Z,96485.78
2023-05-02T12:35:00.302Z,96486.94
2023-05-02T12:37:27.657Z,96494.56
2023-05-02T12:39:55.716Z,96489.53
2023-05-02T12:42:24.546Z,96489.72
2023-05-02T12:44:54.238Z,96496.50
2023-05-02T12:47:22.899Z,96492.22
2023-05-02T12:49:52.920Z,96494.75
2023-05-02T12:52:21.041Z,96492.97
2023-05-02T12:54:47.722Z,96506.78
2023-05-02T12:57:24.888Z,96487.06
2023-05-02T12:59:58.797Z,96505.16
2023-05-02T13:02:25.973Z,96512.41
2023-05-02T13:04:52.870Z,96516.00
2023-05-02T13:07:19.577Z,96515.28
2023-05-02T13:09:46.054Z,96513.53
2023-05-02T13:12:12.836Z,96516.88
2023-05-02T13:14:39.453Z,96520.47
2023-05-02T13:17:08.664Z,96520.63
2023-05-02T13:19:35.453Z,96513.81
2023-05-02T13:22:02.003Z,96514.84
2023-05-02T13:24:28.506Z,96518.09
2023-05-02T13:26:54.906Z,96521.66
2023-05-02T13:29:21.361Z,96526.38
2023-05-02T13:31:48.539Z,96529.91
2023-05-02T13:34:16.288Z,96530.59
2023-05-02T13:36:46.280Z,96524.78
2023-05-02T13:39:13.913Z,96522.81
2023-05-02T13:41:40.642Z,96529.09
2023-05-02T13:44:07.116Z,96529.69
2023-05-02T13:46:36.760Z,96539.75
2023-05-02T13:49:04.262Z,96531.09
2023-05-02T13:51:33.055Z,96534.16
2023-05-02T13:54:04.192Z,96535.31
2023-05-02T13:56:31.801Z,96537.25
2023-05-02T13:58:58.417Z,96544.06
2023-05-02T14:01:26.900Z,96534.81
2023-05-02T14:03:53.734Z,96535.63
2023-05-02T14:06:20.405Z,96522.97
2023-05-02T14:08:46.972Z,96523.91
2023-05-02T14:11:13.435Z,96521.97
2023-05-02T14:13:39.939Z,96528.94
2023-05-02T14:16:06.507Z,96526.59
2023-05-02T14:23:54.445Z,96517.38
2023-05-02T14:26:21.326Z,96516.47
2023-05-02T14:28:47.923Z,96529.31
2023-05-02T14:31:16.518Z,96528.31
2023-05-02T14:33:43.425Z,96531.41
2023-05-02T14:36:10.190Z,96532.53
2023-05-02T14:38:38.715Z,96527.66
2023-05-02T14:41:14.803Z,96534.28
2023-05-02T14:43:43.970Z,96522.41
2023-05-02T14:46:10.518Z,96514.16
2023-05-02T14:48:37.134Z,96520.84
2023-05-02T14:51:04.815Z,96517.41
2023-05-02T14:53:34.176Z,96515.44
2023-05-02T14:56:00.794Z,96521.34
2023-05-02T14:58:34.711Z,96518.41
2023-05-02T15:01:03.315Z,96516.31
2023-05-02T15:03:30.480Z,96511.25
2023-05-02T15:05:57.498Z,96507.03
2023-05-02T15:08:25.409Z,96513.53
2023-05-02T15:10:51.919Z,96501.25
2023-05-02T15:13:18.781Z,96505.59
2023-05-02T15:15:47.007Z,96498.34
2023-05-02T15:18:13.701Z,96498.59
2023-05-02T15:20:40.959Z,96499.16
2023-05-02T15:23:07.517Z,96497.09
2023-05-02T15:25:34.096Z,96498.59
2023-05-02T15:28:02.482Z,96502.00
2023-05-02T15:30:28.877Z,96508.53
2023-05-02T15:32:55.630Z,96521.03
2023-05-02T15:35:22.226Z,96519.56
2023-05-02T15:37:50.597Z,96514.00
2023-05-02T15:40:17.155Z,96512.41
2023-05-02T15:42:43.728Z,96509.31
2023-05-02T15:45:16.235Z,96501.50
2023-05-02T15:47:42.830Z,96510.13
2023-05-02T15:50:11.046Z,96519.56
2023-05-02T15:52:37.474Z,96519.44
2023-05-02T15:55:05.129Z,96516.19
2023-05-02T15:57:31.615Z,96511.25
2023-05-02T15:59:58.325Z,96509.50
2023-05-02T16:02:25.043Z,96508.81
2023-05-02T16:04:51.867Z,96506.78
2023-05-02T16:07:18.434Z,96509.88
2023-05-02T16:09:46.357Z,96507.34
2023-05-02T16:12:13.639Z,96510.31
2023-05-02T16:14:40.086Z,96515.44
2023-05-02T16:17:06.641Z,96507.97
2023-05-02T16:19:33.164Z,96511.81
2023-05-02T16:22:00.297Z,96503.00
2023-05-02T16:24:27.025Z,96507.38
2023-05-02T16:26:55.758Z,96500.56
2023-05-02T16:29:22.551Z,96509.84
2023-05-02T16:31:49.000Z,96507.38
2023-05-02T16:34:15.553Z,96506.19
2023-05-02T16:36:42.350Z,96502.03
2023-05-02T16:39:10.745Z,96509.78
2023-05-02T16:41:37.725Z,96496.72
2023-05-02T16:44:04.688Z,96504.91
2023-05-02T16:46:31.862Z,96505.19
2023-05-02T16:48:58.757Z,96510.22
2023-05-02T16:51:25.189Z,96505.13
2023-05-02T16:53:51.673Z,96499.72
2023-05-02T16:56:18.234Z,96506.00
2023-05-02T16:58:44.909Z,96506.22
2023-05-02T17:01:11.819Z,96509.16
2023-05-02T17:03:41.876Z,96503.34
2023-05-02T17:06:08.699Z,96510.94
2023-05-02T17:08:35.755Z,96512.41
2023-05-02T17:11:02.488Z,96508.97
2023-05-02T17:13:30.070Z,96508.03
2023-05-02T17:15:57.545Z,96512.44
2023-05-02T17:18:24.581Z,96528.91
2023-05-02T17:20:51.551Z,96531.50
2023-05-02T17:23:18.302Z,96535.53
2023-05-02T17:25:45.124Z,96529.56
2023-05-02T17:28:12.101Z,96536.34
2023-05-02T17:30:39.031Z,96541.00
2023-05-02T17:33:06.034Z,96540.44
2023-05-02T17:35:32.814Z,96541.25
2023-05-02T17:37:59.457Z,96541.88
2023-05-02T17:40:26.971Z,96547.50
2023-05-02T17:42:53.559Z,96543.84
2023-05-02T17:45:20.260Z,96531.97
2023-05-02T17:47:47.248Z,96543.34
2023-05-02T17:50:19.943Z,96542.28
2023-05-02T17:52:46.667Z,96538.63
2023-05-02T17:55:13.317Z,96538.38
2023-05-02T17:57:43.258Z,96543.88
2023-05-02T18:00:10.541Z,96548.66
2023-05-02T18:02:37.916Z,96547.56
2023-05-02T18:05:07.081Z,96551.50
2023-05-02T18:07:34.872Z,96565.75
2023-05-02T18:10:04.202Z,96559.66
2023-05-02T18:12:33.603Z,96569.22
2023-05-02T18:15:02.911Z,96563.00
2023-05-02T18:17:29.899Z,96566.47
2023-05-02T18:19:56.606Z,96567.84
2023-05-02T18:22:23.102Z,96566.19
2023-05-02T18:24:50.100Z,96578.44
2023-05-02T18:27:17.508Z,96580.97
2023-05-02T18:29:44.012Z,96582.56
2023-05-02T18:32:10.542Z,96579.59
2023-05-02T18:34:38.743Z,96584.34
2023-05-02T18:37:05.914Z,96581.09
2023-05-02T18:39:34.929Z,96576.59
2023-05-02T18:42:05.585Z,96581.28
2023-05-02T18:44:32.137Z,96586.84
2023-05-02T18:46:59.357Z,96594.91
2023-05-02T18:49:26.275Z,96597.88
2023-05-02T18:51:54.688Z,96606.06
2023-05-02T18:54:23.324Z,96609.44
2023-05-02T18:56:50.048Z,96613.88
2023-05-02T18:59:16.729Z,96620.13
2023-05-02T19:01:50.245Z,96627.88
2023-05-02T19:04:16.766Z,96632.59
2023-05-02T19:06:43.336Z,96627.31
2023-05-02T19:09:09.893Z,96632.09
2023-05-02T19:11:36.641Z,96637.69
2023-05-02T19:14:03.652Z,96642.03
2023-05-02T19:16:31.716Z,96638.78
2023-05-02T19:18:59.445Z,96647.44
2023-05-02T19:21:26.174Z,96638.16
2023-05-02T19:23:52.859Z,96634.31
2023-05-02T19:26:19.969Z,96637.97
2023-05-02T19:28:46.550Z,96642.72
2023-05-02T19:31:18.418Z,96644.97
2023-05-02T19:33:52.163Z,96645.03
2023-05-02T19:36:20.100Z,96649.44
2023-05-02T19:38:52.212Z,96652.78
2023-05-02T19:41:18.914Z,96655.53
2023-05-02T19:43:45.833Z,96651.75
2023-05-02T19:46:14.242Z,96651.78
2023-05-02T19:48:40.761Z,96660.56
2023-05-02T19:51:07.578Z,96661.69
2023-05-02T19:53:35.991Z,96661.84
2023-05-02T19:56:10.589Z,96667.13
2023-05-02T19:58:37.146Z,96658.94
2023-05-02T20:01:03.816Z,96659.88
2023-05-02T20:03:30.708Z,96658.72
2023-05-02T20:05:58.467Z,96663.59
2023-05-02T20:08:27.948Z,96664.22
2023-05-02T20:10:55.726Z,96666.97
2023-05-02T20:13:22.210Z,96664.75
2023-05-02T20:15:52.946Z,96668.09
2023-05-02T20:18:20.432Z,96674.13
2023-05-02T20:20:46.963Z,96673.06
2023-05-02T20:23:13.758Z,96683.50
2023-05-02T20:25:41.896Z,96675.06
2023-05-02T20:28:09.279Z,96679.19
2023-05-02T20:30:35.893Z,96685.56
2023-05-02T20:33:13.912Z,96686.38
2023-05-02T20:35:44.808Z,96693.22
2023-05-02T20:38:12.772Z,96701.41
2023-05-02T20:40:40.658Z,96704.97
2023-05-02T20:43:09.904Z,96709.88
2023-05-02T20:45:36.361Z,96707.72
2023-05-02T20:48:02.933Z,96709.91
2023-05-02T20:50:31.548Z,96713.47
2023-05-02T20:52:58.231Z,96713.22
2023-05-02T20:55:24.833Z,96714.31
2023-05-02T20:57:53.124Z,96709.41
2023-05-02T21:00:22.462Z,96705.59
2023-05-02T21:02:49.330Z,96700.72
2023-05-02T21:05:16.123Z,96711.88
2023-05-02T21:07:42.971Z,96706.19
2023-05-02T21:10:10.052Z,96708.13
2023-05-02T21:12:36.681Z,96710.03
2023-05-02T21:15:06.994Z,96708.69
2023-05-02T21:17:33.525Z,96711.69
2023-05-02T21:20:00.212Z,96719.06
2023-05-02T21:22:27.044Z,96725.03
2023-05-02T21:24:53.513Z,96717.69
2023-05-02T21:27:20.121Z,96720.16
2023-05-02T21:29:46.844Z,96710.59
2023-05-02T21:32:13.788Z,96714.94
2023-05-02T21:34:41.007Z,96711.16
2023-05-02T21:37:07.492Z,96713.06
2023-05-02T21:39:34.016Z,96714.41
2023-05-02T21:42:01.493Z,96720.69
2023-05-02T21:44:28.166Z,96713.34
2023-05-02T21:46:54.871Z,96719.88
2023-05-02T21:49:21.836Z,96715.50
2023-05-02T21:51:49.288Z,96711.44
2023-05-02T21:54:15.802Z,96716.34
2023-05-02T21:56:43.028Z,96717.16
2023-05-02T21:59:10.053Z,96713.34
2023-05-02T22:01:36.562Z,96718.78
2023-05-02T22:04:02.999Z,96720.41
2023-05-02T22:06:31.480Z,96733.47
2023-05-02T22:08:58.061Z,96727.72
2023-05-02T22:11:25.760Z,96719.78
2023-05-02T22:13:54.378Z,96731.22
2023-05-02T22:16:21.427Z,96732.06
2023-05-02T22:18:52.248Z,96737.22
2023-05-02T22:21:18.929Z,96739.94
2023-05-02T22:23:45.542Z,96743.16
2023-05-02T22:26:12.049Z,96745.31
2023-05-02T22:28:38.504Z,96747.22
2023-05-02T22:31:05.415Z,96750.19
2023-05-02T22:33:33.425Z,96752.91
2023-05-02T22:35:59.846Z,96751.50
2023-05-02T22:38:26.386Z,96755.03
2023-05-02T22:40:52.806Z,96748.22
2023-05-02T22:43:19.406Z,96755.53
2023-05-02T22:45:46.558Z,96746.50
2023-05-02T22:48:13.120Z,96750.00
2023-05-02T22:50:40.164Z,96750.53
2023-05-02T22:53:09.398Z,96741.03
2023-05-02T22:55:38.918Z,96737.50
2023-05-02T22:58:11.743Z,96740.25
2023-05-02T23:00:39.550Z,96735.31
2023-05-02T23:03:06.163Z,96727.16
2023-05-02T23:05:32.732Z,96725.34
2023-05-02T23:07:59.417Z,96719.63
2023-05-02T23:10:25.949Z,96717.75
2023-05-02T23:12:52.453Z,96715.59
2023-05-02T23:15:20.881Z,96716.94
2023-05-02T23:17:47.449Z,96711.22
2023-05-02T23:20:14.409Z,96695.69
2023-05-02T23:22:45.753Z,96699.19
2023-05-02T23:25:13.084Z,96696.72
2023-05-02T23:27:39.655Z,96694.25
2023-05-02T23:30:08.313Z,96694.56
2023-05-02T23:32:35.193Z,96686.06
2023-05-02T23:35:01.935Z,96696.66
2023-05-02T23:37:29.100Z,96694.19
2023-05-02T23:39:58.092Z,96689.06
2023-05-02T23:42:24.826Z,96684.72
2023-05-02T23:44:53.689Z,96698.59
2023-05-02T23:47:20.146Z,96688.50
2023-05-02T23:49:46.547Z,96688.50
2023-05-02T23:52:13.080Z,96687.94
2023-05-02T23:54:41.485Z,96697.75
2023-05-02T23:57:09.296Z,96692.88
2023-05-02T23:59:36.177Z,96685.78
